createdAt,value
2022-08-05T00:01:35.887Z,85.86
2022-08-05T00:04:05.061Z,86.84
2022-08-05T00:06:35.850Z,86.94
2022-08-05T00:09:03.896Z,86.53
2022-08-05T00:11:35.053Z,86.52
2022-08-05T00:14:16.896Z,92.42
2022-08-05T00:16:52.337Z,93.09
2022-08-05T00:19:22.244Z,90.24
2022-08-05T00:21:49.664Z,89.31
2022-08-05T00:24:24.236Z,88.66
2022-08-05T00:26:53.244Z,90.85
2022-08-05T00:29:22.659Z,90.71
2022-08-05T00:32:09.391Z,91.75
2022-08-05T00:34:55.425Z,91.16
2022-08-05T00:37:27.398Z,91.10
2022-08-05T00:40:13.833Z,91.51
2022-08-05T00:42:49.143Z,91.30
2022-08-05T00:45:16.634Z,91.90
2022-08-05T00:47:57.835Z,92.66
2022-08-05T00:50:32.959Z,92.06
2022-08-05T00:52:59.877Z,91.71
2022-08-05T00:55:42.142Z,91.80
2022-08-05T00:58:11.265Z,92.08
2022-08-05T01:00:39.662Z,91.85
2022-08-05T01:03:07.792Z,92.26
2022-08-05T01:05:35.329Z,92.71
2022-08-05T01:08:39.141Z,93.61
2022-08-05T01:11:36.839Z,94.15
2022-08-05T01:14:15.436Z,99.90
2022-08-05T01:17:00.088Z,99.54
2022-08-05T01:20:02.451Z,96.33
2022-08-05T01:22:49.733Z,97.33
2022-08-05T01:25:50.281Z,98.20
2022-08-05T01:28:39.462Z,99.11
2022-08-05T01:31:16.895Z,98.30
2022-08-05T01:33:55.406Z,98.12
2022-08-05T01:36:28.284Z,100.00
2022-08-05T01:38:56.690Z,98.68
2022-08-05T01:41:29.462Z,98.65
2022-08-05T01:43:57.122Z,98.08
2022-08-05T01:46:41.555Z,97.68
2022-08-05T01:49:24.299Z,99.55
2022-08-05T01:52:01.426Z,98.59
2022-08-05T01:54:48.845Z,99.04
2022-08-05T01:58:29.498Z,98.32
2022-08-05T02:00:13.457Z,98.46
2022-08-05T02:02:54.712Z,97.96
2022-08-05T02:05:28.569Z,99.09
2022-08-05T02:08:01.066Z,98.99
2022-08-05T02:10:34.642Z,98.88
2022-08-05T02:13:16.084Z,98.72
2022-08-05T02:15:54.247Z,98.71
2022-08-05T02:18:28.062Z,99.64
2022-08-05T02:21:14.946Z,99.63
2022-08-05T02:23:45.102Z,99.13
2022-08-05T02:26:17.194Z,99.58
2022-08-05T02:28:45.771Z,99.66
2022-08-05T02:31:23.154Z,99.33
2022-08-05T02:33:58.154Z,98.88
2022-08-05T02:36:27.478Z,99.84
2022-08-05T02:39:00.433Z,99.16
2022-08-05T02:41:42.928Z,99.55
2022-08-05T02:44:16.950Z,100.00
2022-08-05T02:46:58.420Z,99.94
2022-08-05T02:49:36.448Z,99.88
2022-08-05T02:52:08.772Z,99.89
2022-08-05T02:54:41.315Z,99.90
2022-08-05T02:58:09.882Z,99.82
2022-08-05T03:00:02.496Z,99.80
2022-08-05T03:02:34.940Z,99.88
2022-08-05T03:05:02.978Z,99.97
2022-08-05T03:07:59.147Z,100.00
2022-08-05T03:10:24.628Z,100.00
2022-08-05T03:12:52.778Z,100.00
2022-08-05T03:15:20.796Z,100.00
2022-08-05T03:17:49.707Z,100.00
2022-08-05T03:20:21.100Z,100.00
2022-08-05T03:22:50.084Z,100.00
2022-08-05T03:25:33.053Z,100.00
2022-08-05T03:28:03.328Z,100.00
2022-08-05T03:30:34.173Z,100.00
2022-08-05T03:33:06.021Z,100.00
2022-08-05T03:35:40.454Z,100.00
2022-08-05T03:38:10.749Z,100.00
2022-08-05T03:40:41.062Z,100.00
2022-08-05T03:43:32.348Z,100.00
2022-08-05T03:45:59.582Z,100.00
2022-08-05T03:48:29.045Z,100.00
2022-08-05T03:52:49.231Z,100.00
2022-08-05T03:56:05.915Z,100.00
2022-08-05T03:57:53.591Z,100.00
2022-08-05T04:00:21.321Z,100.00
2022-08-05T04:02:58.486Z,100.00
2022-08-05T04:05:33.292Z,100.00
2022-08-05T04:08:14.797Z,100.00
2022-08-05T04:10:54.516Z,100.00
2022-08-05T04:13:21.881Z,100.00
2022-08-05T04:16:03.150Z,100.00
2022-08-05T04:18:34.278Z,100.00
2022-08-05T04:21:01.773Z,99.96
2022-08-05T04:24:01.107Z,99.29
2022-08-05T04:26:18.496Z,97.96
2022-08-05T04:28:50.731Z,96.97
2022-08-05T04:31:18.581Z,96.37
2022-08-05T04:34:17.954Z,95.61
2022-08-05T04:36:45.518Z,94.73
2022-08-05T04:39:17.196Z,93.36
2022-08-05T04:41:45.936Z,92.72
2022-08-05T04:44:15.221Z,91.66
2022-08-05T04:46:48.545Z,90.50
2022-08-05T04:49:15.378Z,90.80
2022-08-05T04:51:43.729Z,89.55
2022-08-05T04:54:12.008Z,88.78
2022-08-05T04:56:39.569Z,88.32
2022-08-05T04:59:21.770Z,87.78
2022-08-05T05:02:06.874Z,85.77
2022-08-05T05:04:35.834Z,85.78
2022-08-05T05:07:05.334Z,84.89
2022-08-05T05:09:37.227Z,84.60
2022-08-05T05:12:04.825Z,84.51
2022-08-05T05:14:33.134Z,83.80
2022-08-05T05:17:03.786Z,81.99
2022-08-05T05:19:36.960Z,81.25
2022-08-05T05:22:24.472Z,79.91
2022-08-05T05:25:00.248Z,78.02
2022-08-05T05:27:44.458Z,79.34
2022-08-05T05:30:29.556Z,78.21
2022-08-05T05:33:08.901Z,77.95
2022-08-05T05:35:44.519Z,77.84
2022-08-05T05:38:13.706Z,77.18
2022-08-05T05:40:50.029Z,76.77
2022-08-05T05:43:22.302Z,76.22
2022-08-05T05:46:13.808Z,74.70
2022-08-05T05:48:43.962Z,74.47
2022-08-05T05:51:15.803Z,75.48
2022-08-05T05:53:45.995Z,73.98
2022-08-05T05:56:26.132Z,73.90
2022-08-05T05:58:58.708Z,73.04
2022-08-05T06:01:37.495Z,72.41
2022-08-05T06:04:14.855Z,71.60
2022-08-05T06:06:47.556Z,69.88
2022-08-05T06:09:26.530Z,69.50
2022-08-05T06:12:03.852Z,68.29
2022-08-05T06:14:31.716Z,69.40
2022-08-05T06:16:59.696Z,69.84
2022-08-05T06:19:34.986Z,67.60
2022-08-05T06:22:07.250Z,65.45
2022-08-05T06:24:36.585Z,64.98
2022-08-05T06:27:04.592Z,64.17
2022-08-05T06:29:52.009Z,62.88
2022-08-05T06:32:29.436Z,62.44
2022-08-05T06:34:57.958Z,60.98
2022-08-05T06:37:56.113Z,59.65
2022-08-05T06:40:14.032Z,59.72
2022-08-05T06:42:45.732Z,60.59
2022-08-05T06:45:20.748Z,58.86
2022-08-05T06:48:37.478Z,58.84
2022-08-05T06:50:35.560Z,58.35
2022-08-05T06:53:11.688Z,57.39
2022-08-05T06:55:49.283Z,58.07
2022-08-05T06:58:20.086Z,58.41
2022-08-05T07:01:01.447Z,56.52
2022-08-05T07:03:32.697Z,53.03
2022-08-05T07:06:01.373Z,50.03
2022-08-05T07:08:33.119Z,48.19
2022-08-05T07:10:59.900Z,48.23
2022-08-05T07:13:58.456Z,46.82
2022-08-05T07:17:59.043Z,45.98
2022-08-05T07:19:02.084Z,47.81
2022-08-05T07:21:28.823Z,47.55
2022-08-05T07:24:17.004Z,47.29
2022-08-05T07:26:46.330Z,45.49
2022-08-05T07:29:13.663Z,43.55
2022-08-05T07:31:54.648Z,44.42
2022-08-05T07:34:28.364Z,45.81
2022-08-05T07:36:55.349Z,45.53
2022-08-05T07:39:24.814Z,44.05
2022-08-05T07:42:15.260Z,42.75
2022-08-05T07:44:43.181Z,43.47
2022-08-05T07:47:13.448Z,43.04
2022-08-05T07:49:43.596Z,43.67
2022-08-05T07:52:23.919Z,43.33
2022-08-05T07:54:53.152Z,42.94
2022-08-05T07:57:55.304Z,42.83
2022-08-05T08:00:11.415Z,41.11
2022-08-05T08:03:14.246Z,39.68
2022-08-05T08:05:26.397Z,39.73
2022-08-05T08:07:59.939Z,39.96
2022-08-05T08:10:28.042Z,39.23
2022-08-05T08:12:55.129Z,38.60
2022-08-05T08:16:33.469Z,37.51
2022-08-05T08:18:14.121Z,36.79
2022-08-05T08:20:59.689Z,36.97
2022-08-05T08:24:03.801Z,36.38
2022-08-05T08:26:14.556Z,36.18
2022-08-05T08:28:59.471Z,34.77
2022-08-05T08:31:27.937Z,34.65
2022-08-05T08:33:59.834Z,34.59
2022-08-05T08:36:38.144Z,35.25
2022-08-05T08:39:15.835Z,35.35
2022-08-05T08:41:52.327Z,35.38
2022-08-05T08:45:21.058Z,34.80
2022-08-05T08:47:46.939Z,34.40
2022-08-05T08:50:31.952Z,34.47
2022-08-05T08:53:11.901Z,34.32
2022-08-05T08:56:04.477Z,33.49
2022-08-05T08:58:37.445Z,34.06
2022-08-05T09:01:16.968Z,34.24
2022-08-05T09:03:54.352Z,34.85
2022-08-05T09:06:28.250Z,34.97
2022-08-05T09:08:59.341Z,35.02
2022-08-05T09:11:53.341Z,34.13
2022-08-05T09:14:58.017Z,34.41
2022-08-05T09:17:05.583Z,33.57
2022-08-05T09:20:01.333Z,33.91
2022-08-05T09:22:31.759Z,34.46
2022-08-05T09:25:23.915Z,33.97
2022-08-05T09:28:03.830Z,34.06
2022-08-05T09:30:34.690Z,32.77
2022-08-05T09:33:02.532Z,32.84
2022-08-05T09:35:31.543Z,32.86
2022-08-05T09:38:16.304Z,32.80
2022-08-05T09:40:52.612Z,31.91
2022-08-05T09:43:40.449Z,31.40
2022-08-05T09:46:27.564Z,31.31
2022-08-05T09:49:08.005Z,31.52
2022-08-05T09:51:49.749Z,31.75
2022-08-05T09:54:29.633Z,31.80
2022-08-05T09:56:57.587Z,31.61
2022-08-05T09:59:27.718Z,31.30
2022-08-05T10:01:58.289Z,31.56
2022-08-05T10:04:35.840Z,31.50
2022-08-05T10:07:20.332Z,31.23
2022-08-05T10:10:04.227Z,30.19
2022-08-05T10:12:49.464Z,30.70
2022-08-05T10:15:34.298Z,31.20
2022-08-05T10:18:17.625Z,30.52
2022-08-05T10:20:56.377Z,30.89
2022-08-05T10:24:00.056Z,30.50
2022-08-05T10:26:32.574Z,30.89
2022-08-05T10:29:00.831Z,30.70
2022-08-05T10:33:01.486Z,30.28
2022-08-05T10:34:14.533Z,30.50
2022-08-05T10:36:44.207Z,30.14
2022-08-05T10:40:03.176Z,30.47
2022-08-05T10:42:34.139Z,30.78
2022-08-05T10:45:01.820Z,30.58
2022-08-05T10:47:33.704Z,30.34
2022-08-05T10:50:31.810Z,30.33
2022-08-05T10:52:52.577Z,30.06
2022-08-05T10:55:26.767Z,30.30
2022-08-05T10:58:11.651Z,29.58
2022-08-05T11:00:46.477Z,29.82
2022-08-05T11:03:24.476Z,30.49
2022-08-05T11:06:04.031Z,30.05
2022-08-05T11:08:37.934Z,30.28
2022-08-05T11:11:41.996Z,29.66
2022-08-05T11:15:01.306Z,29.63
2022-08-05T11:18:09.580Z,29.70
2022-08-05T11:20:41.571Z,30.25
2022-08-05T11:24:03.995Z,30.12
2022-08-05T11:26:32.493Z,30.24
2022-08-05T11:29:12.729Z,30.46
2022-08-05T11:31:53.965Z,30.22
2022-08-05T11:34:51.446Z,30.09
2022-08-05T11:38:36.741Z,30.31
2022-08-05T11:41:35.310Z,30.62
2022-08-05T11:44:09.989Z,30.68
2022-08-05T11:47:10.314Z,30.54
2022-08-05T11:49:34.319Z,30.18
2022-08-05T11:52:11.519Z,30.16
2022-08-05T11:54:40.720Z,30.42
2022-08-05T11:57:24.828Z,30.48
2022-08-05T11:59:55.741Z,30.41
2022-08-05T12:02:32.530Z,30.37
2022-08-05T12:05:07.540Z,30.42
2022-08-05T12:08:03.110Z,30.79
2022-08-05T12:10:43.072Z,30.60
2022-08-05T12:13:47.445Z,30.45
2022-08-05T12:16:15.013Z,30.71
2022-08-05T12:18:49.049Z,30.41
2022-08-05T12:21:23.777Z,30.32
2022-08-05T12:24:10.475Z,30.25
2022-08-05T12:26:40.936Z,29.90
2022-08-05T12:29:22.538Z,30.23
2022-08-05T12:31:57.760Z,30.60
2022-08-05T12:34:31.032Z,30.45
2022-08-05T12:37:03.580Z,30.62
2022-08-05T12:39:34.474Z,30.66
2022-08-05T12:42:14.628Z,30.90
2022-08-05T12:44:43.224Z,30.44
2022-08-05T12:47:12.672Z,30.72
2022-08-05T12:50:04.369Z,30.88
2022-08-05T12:52:32.380Z,30.72
2022-08-05T12:55:16.637Z,30.67
2022-08-05T12:58:50.214Z,30.34
2022-08-05T13:02:05.851Z,30.48
2022-08-05T13:03:16.762Z,30.28
2022-08-05T13:05:47.214Z,30.76
2022-08-05T13:08:19.648Z,30.57
2022-08-05T13:10:50.518Z,30.61
2022-08-05T13:14:05.438Z,30.37
2022-08-05T13:16:15.396Z,30.46
2022-08-05T13:18:57.648Z,30.60
2022-08-05T13:21:28.238Z,30.67
2022-08-05T13:24:06.095Z,30.24
2022-08-05T13:26:35.738Z,30.02
2022-08-05T13:29:02.468Z,29.85
2022-08-05T13:32:02.863Z,29.95
2022-08-05T13:34:21.508Z,29.67
2022-08-05T13:36:50.555Z,29.07
2022-08-05T13:39:24.820Z,28.72
2022-08-05T13:42:04.013Z,27.46
2022-08-05T13:44:32.801Z,27.03
2022-08-05T13:47:08.856Z,26.36
2022-08-05T13:49:38.179Z,26.07
2022-08-05T13:52:16.589Z,25.49
2022-08-05T13:54:43.756Z,26.34
2022-08-05T13:57:21.069Z,25.97
2022-08-05T13:59:57.534Z,25.29
2022-08-05T14:02:29.777Z,24.78
2022-08-05T14:05:00.831Z,24.53
2022-08-05T14:08:00.139Z,24.91
2022-08-05T14:10:32.431Z,24.55
2022-08-05T14:12:59.958Z,25.06
2022-08-05T14:16:05.878Z,24.82
2022-08-05T14:18:18.670Z,24.37
2022-08-05T14:20:54.982Z,23.88
2022-08-05T14:23:25.913Z,23.37
2022-08-05T14:25:58.719Z,23.75
2022-08-05T14:28:28.439Z,23.07
2022-08-05T14:30:59.354Z,23.00
2022-08-05T14:33:27.020Z,23.28
2022-08-05T14:36:00.581Z,23.56
2022-08-05T14:38:34.416Z,22.83
2022-08-05T14:41:06.065Z,23.05
2022-08-05T14:44:01.958Z,23.22
2022-08-05T14:46:28.547Z,22.88
2022-08-05T14:49:06.596Z,22.86
2022-08-05T14:51:36.525Z,22.79
2022-08-05T14:54:26.843Z,22.49
2022-08-05T14:56:53.727Z,22.40
2022-08-05T14:59:21.656Z,22.39
2022-08-05T15:01:49.943Z,22.06
2022-08-05T15:04:22.354Z,22.46
2022-08-05T15:06:50.976Z,23.22
2022-08-05T15:09:52.169Z,23.58
2022-08-05T15:12:09.348Z,23.94
2022-08-05T15:14:48.058Z,24.31
2022-08-05T15:17:46.019Z,24.75
2022-08-05T15:20:17.156Z,25.06
2022-08-05T15:22:54.258Z,25.29
2022-08-05T15:25:41.394Z,25.86
2022-08-05T15:28:14.341Z,25.96
2022-08-05T15:30:43.676Z,26.07
2022-08-05T15:33:13.248Z,26.66
2022-08-05T15:35:59.963Z,27.09
2022-08-05T15:38:34.095Z,27.17
2022-08-05T15:41:21.388Z,27.20
2022-08-05T15:43:50.345Z,27.36
2022-08-05T15:46:20.167Z,27.67
2022-08-05T15:48:52.718Z,27.72
2022-08-05T15:52:13.901Z,27.69
2022-08-05T15:54:15.122Z,27.27
2022-08-05T15:56:42.527Z,26.61
2022-08-05T15:59:10.627Z,26.27
2022-08-05T16:01:52.914Z,26.08
2022-08-05T16:04:25.783Z,26.03
2022-08-05T16:06:56.487Z,25.90
2022-08-05T16:09:24.942Z,26.14
2022-08-05T16:11:54.037Z,26.05
2022-08-05T16:14:22.418Z,26.18
2022-08-05T16:16:49.446Z,25.80
2022-08-05T16:19:25.606Z,25.20
2022-08-05T16:22:04.634Z,25.37
2022-08-05T16:24:41.098Z,25.30
2022-08-05T16:27:17.926Z,24.90
2022-08-05T16:29:50.401Z,24.25
2022-08-05T16:32:28.740Z,24.05
2022-08-05T16:34:56.781Z,24.44
2022-08-05T16:38:02.871Z,24.44
2022-08-05T16:40:13.484Z,24.36
2022-08-05T16:42:53.158Z,24.66
2022-08-05T16:46:07.828Z,24.95
2022-08-05T16:48:06.634Z,25.60
2022-08-05T16:50:37.277Z,26.07
2022-08-05T16:53:12.656Z,26.70
2022-08-05T16:55:49.970Z,27.33
2022-08-05T16:58:19.713Z,27.79
2022-08-05T17:00:48.128Z,28.27
2022-08-05T17:03:20.078Z,28.87
2022-08-05T17:05:53.926Z,29.06
2022-08-05T17:08:36.042Z,29.48
2022-08-05T17:11:17.365Z,30.13
2022-08-05T17:13:45.356Z,30.75
2022-08-05T17:16:32.526Z,31.15
2022-08-05T17:19:00.340Z,31.69
2022-08-05T17:21:35.556Z,31.65
2022-08-05T17:24:18.471Z,31.84
2022-08-05T17:26:53.363Z,32.10
2022-08-05T17:29:22.739Z,32.55
2022-08-05T17:32:01.130Z,32.98
2022-08-05T17:34:29.540Z,33.55
2022-08-05T17:36:59.889Z,33.64
2022-08-05T17:39:34.309Z,34.03
2022-08-05T17:42:19.055Z,34.19
2022-08-05T17:44:50.556Z,34.51
2022-08-05T17:47:21.738Z,35.37
2022-08-05T17:50:00.052Z,35.75
2022-08-05T17:52:32.504Z,36.73
2022-08-05T17:55:00.374Z,37.30
2022-08-05T17:57:28.052Z,37.51
2022-08-05T18:00:05.432Z,37.85
2022-08-05T18:02:34.101Z,37.99
2022-08-05T18:05:01.871Z,38.50
2022-08-05T18:07:32.890Z,38.92
2022-08-05T18:10:10.746Z,39.51
2022-08-05T18:12:38.089Z,39.68
2022-08-05T18:15:06.104Z,39.90
2022-08-05T18:18:01.035Z,41.02
2022-08-05T18:20:29.180Z,40.63
2022-08-05T18:23:09.525Z,40.68
2022-08-05T18:25:44.761Z,41.02
2022-08-05T18:28:16.117Z,41.24
2022-08-05T18:30:50.909Z,41.42
2022-08-05T18:33:23.146Z,41.84
2022-08-05T18:36:03.773Z,41.98
2022-08-05T18:38:34.932Z,43.74
2022-08-05T18:41:56.461Z,44.91
2022-08-05T18:43:50.261Z,45.67
2022-08-05T18:46:20.081Z,46.31
2022-08-05T18:48:51.884Z,46.77
2022-08-05T18:52:04.235Z,46.76
2022-08-05T18:54:10.210Z,47.46
2022-08-05T18:56:36.833Z,47.67
2022-08-05T18:59:05.074Z,49.51
2022-08-05T19:01:56.990Z,51.05
2022-08-05T19:04:25.996Z,55.25
2022-08-05T19:06:53.650Z,51.80
2022-08-05T19:09:21.103Z,51.34
2022-08-05T19:11:59.194Z,51.91
2022-08-05T19:14:59.368Z,52.07
2022-08-05T19:17:16.589Z,54.09
2022-08-05T19:19:46.803Z,53.20
2022-08-05T19:22:17.106Z,53.72
2022-08-05T19:24:56.358Z,57.84
2022-08-05T19:27:24.650Z,56.93
2022-08-05T19:29:54.749Z,56.39
2022-08-05T19:32:23.526Z,56.01
2022-08-05T19:34:55.115Z,58.66
2022-08-05T19:37:29.804Z,57.62
2022-08-05T19:40:13.167Z,58.28
2022-08-05T19:42:41.872Z,58.26
2022-08-05T19:45:27.732Z,58.34
2022-08-05T19:47:59.905Z,57.49
2022-08-05T19:50:26.803Z,57.60
2022-08-05T19:52:54.426Z,59.68
2022-08-05T19:56:13.768Z,59.13
2022-08-05T19:58:29.132Z,61.13
2022-08-05T20:00:54.633Z,62.02
2022-08-05T20:03:21.455Z,63.35
2022-08-05T20:05:50.624Z,67.51
2022-08-05T20:08:19.184Z,64.97
2022-08-05T20:10:49.538Z,62.88
2022-08-05T20:13:17.550Z,62.01
2022-08-05T20:15:51.538Z,61.91
2022-08-05T20:18:33.977Z,62.60
2022-08-05T20:21:04.535Z,63.14
2022-08-05T20:23:39.903Z,62.89
2022-08-05T20:26:17.802Z,65.04
2022-08-05T20:28:49.261Z,65.06
2022-08-05T20:31:17.085Z,64.05
2022-08-05T20:33:44.905Z,63.80
2022-08-05T20:36:14.242Z,64.12
2022-08-05T20:38:54.487Z,65.02
2022-08-05T20:41:27.420Z,64.90
2022-08-05T20:44:15.456Z,66.58
2022-08-05T20:46:47.292Z,68.15
2022-08-05T20:49:14.299Z,68.86
2022-08-05T20:51:45.050Z,68.03
2022-08-05T20:54:20.228Z,71.23
2022-08-05T20:56:47.543Z,70.97
2022-08-05T20:59:19.136Z,70.03
2022-08-05T21:01:47.141Z,69.55
2022-08-05T21:04:14.224Z,69.09
2022-08-05T21:06:45.088Z,69.76
2022-08-05T21:09:14.568Z,70.80
2022-08-05T21:12:10.287Z,69.83
2022-08-05T21:14:35.219Z,70.28
2022-08-05T21:17:05.327Z,69.88
2022-08-05T21:19:46.466Z,71.55
2022-08-05T21:22:18.492Z,71.17
2022-08-05T21:24:48.712Z,70.49
2022-08-05T21:27:18.225Z,71.31
2022-08-05T21:29:48.475Z,71.52
2022-08-05T21:32:20.103Z,71.53
2022-08-05T21:35:06.748Z,74.44
2022-08-05T21:37:34.900Z,74.91
2022-08-05T21:40:05.714Z,73.31
2022-08-05T21:42:44.196Z,73.47
2022-08-05T21:45:13.048Z,75.25
2022-08-05T21:47:56.076Z,81.51
2022-08-05T21:50:25.517Z,80.04
2022-08-05T21:52:52.915Z,79.27
2022-08-05T21:55:42.859Z,79.39
2022-08-05T21:58:07.073Z,78.01
2022-08-05T22:00:37.248Z,77.70
2022-08-05T22:03:03.934Z,79.00
2022-08-05T22:05:49.205Z,78.21
2022-08-05T22:08:22.300Z,78.85
2022-08-05T22:10:51.607Z,80.35
2022-08-05T22:14:19.560Z,81.55
2022-08-05T22:16:32.361Z,81.20
2022-08-05T22:18:53.763Z,80.63
2022-08-05T22:21:25.245Z,79.74
2022-08-05T22:24:03.006Z,80.35
2022-08-05T22:26:35.465Z,80.45
2022-08-05T22:29:02.479Z,80.02
2022-08-05T22:31:30.467Z,80.29
2022-08-05T22:34:01.119Z,80.28
2022-08-05T22:36:28.924Z,80.70
2022-08-05T22:38:56.190Z,81.78
2022-08-05T22:42:05.605Z,84.94
2022-08-05T22:44:11.999Z,85.96
2022-08-05T22:46:40.686Z,84.64
2022-08-05T22:50:17.165Z,83.79
2022-08-05T22:52:07.056Z,83.39
2022-08-05T22:54:38.875Z,83.32
2022-08-05T22:57:06.438Z,83.19
2022-08-05T22:59:45.489Z,83.05
2022-08-05T23:02:17.887Z,83.27
2022-08-05T23:04:52.156Z,82.99
2022-08-05T23:07:22.477Z,83.33
2022-08-05T23:09:58.310Z,83.53
2022-08-05T23:12:32.388Z,85.37
2022-08-05T23:15:00.186Z,87.82
2022-08-05T23:17:34.698Z,87.75
2022-08-05T23:20:17.762Z,87.92
2022-08-05T23:22:48.582Z,87.04
2022-08-05T23:25:52.346Z,86.82
2022-08-05T23:28:07.213Z,88.35
2022-08-05T23:30:40.683Z,88.11
2022-08-05T23:33:22.101Z,89.13
2022-08-05T23:35:56.201Z,90.84
2022-08-05T23:38:24.061Z,89.92
2022-08-05T23:40:52.567Z,88.94
2022-08-05T23:43:25.228Z,88.65
2022-08-05T23:46:20.262Z,90.76
2022-08-05T23:49:00.015Z,92.47
2022-08-05T23:51:29.558Z,90.38
2022-08-05T23:54:01.026Z,90.32
2022-08-05T23:56:28.162Z,90.47
2022-08-05T23:58:58.664Z,95.86
